Current Weather

Raleigh-Durham Intl

Raleigh/Durham, North Carolina (KRDU)

Report from: Saturday, February 4, 2023 12:51 AM EST
Current time: Saturday, February 4, 2023 1:47 AM EST

Nearby weather
Weather history
Weather forecast

Temperature-1.1°C (30.0°F)
Wind chill-3.1°C (26.5°F)
Dew point-12.8°C (9.0°F)
Winds 3 kts (1.5 m/s, 3.5 mph) North (360°)
Visibility10 mi. (16.1 km)
Clouds Sky clear
Altimeter30.50 in.Hg (1033 mB)
Relative humidity41 %
Density altitude-2,596 ft. (-791 m)
Sea-level pressure103.3 kPa (1033 mB, 30.50 in.Hg)
Max temp last 6 hours3.9°C (39.0°F)
Min temp last 6 hours-1.1°C (30.0°F)
Remarks Automated weather observing station with precipitation discriminator
Pressure rising more slowly
Flight conditions Visual Meteorological Conditions
Raw dataKRDU 040551Z 36003KT 10SM CLR M01/M13 A3050 RMK AO2 SLP330 T10111128 10039 21011 51024
An unhandled exception has occurred. See browser dev tools for details. Reload 🗙